Time;durP1;ratioP1;P1;durP2;ratioP2;P2;SDS_P1;SDS_P2;PMS_P1;PMS_P2;Temp;Humidity;BMP_temperature;BMP_pressure;BME280_temperature;BME280_humidity;BME280_pressure;Samples;Min_cycle;Max_cycle;Signal;HPM_P1;HPM_P2
2024/04/12 00:01:06;;;;;;;7.90;4.57;;;;;;;;;;5377345;26;20278;-83
2024/04/12 00:04:15;;;;;;;8.30;4.67;;;;;;;;;;5376701;26;20293;-83
2024/04/12 00:07:22;;;;;;;6.47;4.03;;;;;;;;;;5376528;26;20215;-84
2024/04/12 00:10:26;;;;;;;6.70;4.73;;;;;;;;;;5396845;26;20246;-84
2024/04/12 00:13:36;;;;;;;7.63;4.80;;;;;;;;;;5417435;26;20780;-84
2024/04/12 00:16:43;;;;;;;5.77;4.53;;;;;;;;;;5417250;26;20214;-83
2024/04/12 00:19:47;;;;;;;9.37;5.17;;;;;;;;;;5396377;26;20226;-83
2024/04/12 00:22:55;;;;;;;6.43;4.77;;;;;;;;;;5396757;26;20550;-82
2024/04/12 00:26:03;;;;;;;7.77;4.97;;;;;;;;;;5376180;26;20226;-82
2024/04/12 00:29:08;;;;;;;6.87;5.53;;;;;;;;;;5377350;26;20266;-82
2024/04/12 00:32:17;;;;;;;8.07;5.47;;;;;;;;;;5399892;26;20277;-82
2024/04/12 00:35:21;;;;;;;6.30;5.10;;;;;;;;;;5400155;26;20227;-81
2024/04/12 00:38:25;;;;;;;10.33;6.17;;;;;;;;;;5379891;26;20557;-81
2024/04/12 00:41:29;;;;;;;8.70;5.63;;;;;;;;;;5379597;26;20270;-82
2024/04/12 00:44:41;;;;;;;6.90;5.47;;;;;;;;;;5400027;26;20222;-82
2024/04/12 00:47:47;;;;;;;7.83;5.73;;;;;;;;;;5379485;26;20254;-82
2024/04/12 00:50:51;;;;;;;6.10;5.10;;;;;;;;;;5399839;26;20281;-82
2024/04/12 00:53:56;;;;;;;6.83;5.20;;;;;;;;;;5399930;26;20721;-81
2024/04/12 00:57:02;;;;;;;6.33;5.10;;;;;;;;;;5399877;26;20266;-81
2024/04/12 01:00:12;;;;;;;11.20;5.90;;;;;;;;;;5380040;26;20558;-81
2024/04/12 01:03:18;;;;;;;9.40;6.13;;;;;;;;;;5399740;26;20864;-81
2024/04/12 01:06:29;;;;;;;6.90;5.30;;;;;;;;;;5399486;26;20222;-81
2024/04/12 01:09:35;;;;;;;7.57;5.53;;;;;;;;;;5378620;26;20230;-81
2024/04/12 01:12:40;;;;;;;8.27;5.43;;;;;;;;;;5399341;26;20285;-81
2024/04/12 01:15:45;;;;;;;6.33;5.63;;;;;;;;;;5398964;26;20242;-81
2024/04/12 01:18:55;;;;;;;7.83;5.53;;;;;;;;;;5419193;26;20270;-82
2024/04/12 01:22:00;;;;;;;7.10;5.70;;;;;;;;;;5398566;26;20273;-82
2024/04/12 01:25:05;;;;;;;6.40;5.40;;;;;;;;;;5378764;26;20214;-82
2024/04/12 01:28:09;;;;;;;8.70;6.20;;;;;;;;;;5398591;26;20277;-82
2024/04/12 01:31:17;;;;;;;6.10;5.43;;;;;;;;;;5398802;26;20293;-82
2024/04/12 01:34:21;;;;;;;6.20;5.40;;;;;;;;;;5378332;26;20625;-82
2024/04/12 01:37:30;;;;;;;9.20;5.40;;;;;;;;;;5398525;26;20218;-82
2024/04/12 01:40:36;;;;;;;11.47;5.53;;;;;;;;;;5398567;26;20214;-82
2024/04/12 01:43:40;;;;;;;6.20;5.37;;;;;;;;;;5378732;26;20610;-82
2024/04/12 01:46:44;;;;;;;9.20;5.23;;;;;;;;;;5398887;26;20222;-82
2024/04/12 01:49:49;;;;;;;8.80;5.43;;;;;;;;;;5419104;26;20546;-82
2024/04/12 01:52:58;;;;;;;7.27;5.70;;;;;;;;;;5378664;26;20230;-82
2024/04/12 01:56:05;;;;;;;6.40;5.07;;;;;;;;;;5378144;26;20231;-82
2024/04/12 01:59:12;;;;;;;9.63;5.30;;;;;;;;;;5398468;26;20563;-81
2024/04/12 02:02:16;;;;;;;7.03;5.83;;;;;;;;;;5398254;26;20278;-81
2024/04/12 02:05:34;;;;;;;7.73;5.17;;;;;;;;;;5377763;26;20301;-81
2024/04/12 02:08:38;;;;;;;6.20;4.90;;;;;;;;;;5419492;26;20211;-82
2024/04/12 02:11:47;;;;;;;7.13;5.03;;;;;;;;;;5377508;26;20293;-82
2024/04/12 02:14:54;;;;;;;6.63;5.53;;;;;;;;;;5397798;26;20222;-82
2024/04/12 02:17:58;;;;;;;9.53;6.33;;;;;;;;;;5398230;26;20617;-82
2024/04/12 02:21:06;;;;;;;7.47;5.50;;;;;;;;;;5397689;26;20771;-82
2024/04/12 02:24:10;;;;;;;5.90;5.30;;;;;;;;;;5377838;26;20207;-82
2024/04/12 02:27:14;;;;;;;7.00;5.93;;;;;;;;;;5377780;26;20273;-82
2024/04/12 02:30:19;;;;;;;6.93;5.70;;;;;;;;;;5397607;26;20222;-82
2024/04/12 02:33:27;;;;;;;7.13;5.77;;;;;;;;;;5398359;26;20262;-82
2024/04/12 02:36:31;;;;;;;8.17;5.90;;;;;;;;;;5398034;26;20228;-82
2024/04/12 02:39:40;;;;;;;7.27;5.43;;;;;;;;;;5397968;26;20570;-82
2024/04/12 02:42:45;;;;;;;7.83;5.40;;;;;;;;;;5377824;26;20273;-82
2024/04/12 02:46:00;;;;;;;10.00;6.53;;;;;;;;;;5377733;26;20550;-82
2024/04/12 02:49:09;;;;;;;10.07;6.93;;;;;;;;;;5398161;26;20621;-81
2024/04/12 02:52:13;;;;;;;7.70;6.33;;;;;;;;;;5396622;26;20772;-81
2024/04/12 02:55:18;;;;;;;9.43;6.17;;;;;;;;;;5377872;26;20218;-81
2024/04/12 02:58:23;;;;;;;9.73;6.83;;;;;;;;;;5417881;26;20605;-82
2024/04/12 03:01:27;;;;;;;9.97;6.73;;;;;;;;;;5377360;26;20270;-81
2024/04/12 03:04:33;;;;;;;8.97;7.47;;;;;;;;;;5397422;26;20297;-81
2024/04/12 03:07:37;;;;;;;8.00;7.03;;;;;;;;;;5419521;26;20219;-81
2024/04/12 03:10:45;;;;;;;9.07;7.13;;;;;;;;;;5377439;26;20278;-81
2024/04/12 03:13:53;;;;;;;11.63;7.60;;;;;;;;;;5397754;26;20226;-81
2024/04/12 03:16:57;;;;;;;7.10;6.40;;;;;;;;;;5397597;26;20222;-81
2024/04/12 03:20:03;;;;;;;8.30;6.90;;;;;;;;;;5377522;26;20226;-81
2024/04/12 03:23:07;;;;;;;7.23;6.43;;;;;;;;;;5396663;26;20290;-81
2024/04/12 03:26:13;;;;;;;7.93;6.60;;;;;;;;;;5418692;26;20221;-81
2024/04/12 03:29:17;;;;;;;9.33;5.93;;;;;;;;;;5376813;26;20281;-81
2024/04/12 03:32:29;;;;;;;7.37;6.30;;;;;;;;;;5417574;26;20262;-81
2024/04/12 03:35:33;;;;;;;8.33;6.77;;;;;;;;;;5396985;26;20222;-81
2024/04/12 03:38:38;;;;;;;8.70;6.47;;;;;;;;;;5397124;26;20234;-82
2024/04/12 03:41:43;;;;;;;7.43;5.97;;;;;;;;;;5417245;26;20305;-81
2024/04/12 03:44:48;;;;;;;11.73;7.30;;;;;;;;;;5397117;26;20230;-81
2024/04/12 03:47:54;;;;;;;8.83;7.10;;;;;;;;;;5396889;26;20273;-82
2024/04/12 03:51:06;;;;;;;8.10;6.73;;;;;;;;;;5417222;26;20293;-82
2024/04/12 03:54:18;;;;;;;8.57;6.90;;;;;;;;;;5376599;26;20218;-82
2024/04/12 03:57:26;;;;;;;11.60;7.57;;;;;;;;;;5396673;26;20226;-81
2024/04/12 04:00:38;;;;;;;8.40;6.90;;;;;;;;;;5376280;26;20586;-82
2024/04/12 04:03:49;;;;;;;7.73;6.77;;;;;;;;;;5378196;26;20269;-82
2024/04/12 04:06:55;;;;;;;8.53;7.30;;;;;;;;;;5400537;26;20293;-82
2024/04/12 04:09:59;;;;;;;12.27;7.40;;;;;;;;;;5399930;26;20230;-82
2024/04/12 04:13:04;;;;;;;8.23;6.93;;;;;;;;;;5400154;26;20227;-81
2024/04/12 04:16:10;;;;;;;7.23;6.37;;;;;;;;;;5380087;26;20222;-81
2024/04/12 04:19:16;;;;;;;8.00;6.57;;;;;;;;;;5420636;26;20283;-81
2024/04/12 04:25:40;;;;;;;8.97;6.63;;;;;;;;;;5400249;26;20219;-82
2024/04/12 04:28:44;;;;;;;12.27;6.67;;;;;;;;;;5420268;26;20274;-81
2024/04/12 04:31:54;;;;;;;9.77;7.63;;;;;;;;;;5380056;26;20285;-82
2024/04/12 04:35:09;;;;;;;9.70;7.70;;;;;;;;;;5399663;26;20218;-82
2024/04/12 04:38:15;;;;;;;9.70;7.13;;;;;;;;;;5400231;26;20285;-81
2024/04/12 04:41:19;;;;;;;9.83;7.90;;;;;;;;;;5421948;26;20266;-82
2024/04/12 04:44:24;;;;;;;10.87;8.23;;;;;;;;;;5380705;26;20222;-82
2024/04/12 04:47:30;;;;;;;11.90;8.27;;;;;;;;;;5380436;26;20286;-81
2024/04/12 04:50:36;;;;;;;13.60;7.97;;;;;;;;;;5420388;26;20558;-82
2024/04/12 04:53:40;;;;;;;10.67;7.87;;;;;;;;;;5400162;26;20560;-81
2024/04/12 04:56:45;;;;;;;10.83;7.77;;;;;;;;;;5379619;26;20265;-81
2024/04/12 04:59:49;;;;;;;9.63;8.00;;;;;;;;;;5420167;26;20273;-82
2024/04/12 05:02:55;;;;;;;9.83;7.77;;;;;;;;;;5399861;26;20272;-82
2024/04/12 05:06:05;;;;;;;8.77;7.13;;;;;;;;;;5379376;26;20273;-82
2024/04/12 05:09:12;;;;;;;7.97;6.63;;;;;;;;;;5399529;26;20224;-81
2024/04/12 05:12:16;;;;;;;8.93;6.83;;;;;;;;;;5380079;26;20297;-81
2024/04/12 05:18:44;;;;;;;8.90;8.00;;;;;;;;;;5399812;26;20270;-82
2024/04/12 05:21:52;;;;;;;10.17;7.90;;;;;;;;;;5399368;26;20282;-83
2024/04/12 05:24:56;;;;;;;13.60;8.70;;;;;;;;;;5399951;26;20581;-82
2024/04/12 05:28:06;;;;;;;15.33;9.20;;;;;;;;;;5400340;26;20776;-82
2024/04/12 05:31:11;;;;;;;11.80;8.37;;;;;;;;;;5379338;26;20273;-82
2024/04/12 05:34:18;;;;;;;12.47;8.37;;;;;;;;;;5378692;26;20289;-81
2024/04/12 05:37:22;;;;;;;11.40;7.50;;;;;;;;;;5400166;26;20218;-83
2024/04/12 05:40:28;;;;;;;11.07;7.50;;;;;;;;;;5420243;26;20714;-82
2024/04/12 05:43:32;;;;;;;10.30;7.60;;;;;;;;;;5399237;26;20265;-82
2024/04/12 05:46:40;;;;;;;9.60;7.00;;;;;;;;;;5399515;26;20215;-82
2024/04/12 05:49:46;;;;;;;11.73;8.37;;;;;;;;;;5399233;26;20257;-81
2024/04/12 05:52:52;;;;;;;12.47;9.13;;;;;;;;;;5378645;26;20222;-81
2024/04/12 05:59:21;;;;;;;19.20;13.83;;;;;;;;;;5399619;26;20218;-82
2024/04/12 06:02:26;;;;;;;18.00;13.10;;;;;;;;;;5399972;26;20342;-83
2024/04/12 06:05:32;;;;;;;15.40;11.30;;;;;;;;;;5419854;26;20767;-82
2024/04/12 06:08:41;;;;;;;14.73;9.57;;;;;;;;;;5399224;26;20241;-82
2024/04/12 06:11:56;;;;;;;16.47;10.67;;;;;;;;;;5378659;26;20274;-83
2024/04/12 06:15:04;;;;;;;14.27;9.50;;;;;;;;;;5398982;26;20206;-83
2024/04/12 06:18:08;;;;;;;12.70;9.33;;;;;;;;;;5382004;26;20608;-83
2024/04/12 06:21:12;;;;;;;8.63;7.73;;;;;;;;;;5398414;26;20274;-83
2024/04/12 06:24:29;;;;;;;10.90;8.53;;;;;;;;;;5420403;26;20223;-83
2024/04/12 06:27:33;;;;;;;14.00;9.70;;;;;;;;;;5398141;26;20294;-83
2024/04/12 06:30:46;;;;;;;15.33;9.63;;;;;;;;;;5399864;26;20262;-83
2024/04/12 06:33:51;;;;;;;14.57;9.57;;;;;;;;;;5399357;26;20266;-84
2024/04/12 06:37:05;;;;;;;12.27;11.00;;;;;;;;;;5400474;26;20218;-83
2024/04/12 06:40:10;;;;;;;14.20;11.67;;;;;;;;;;5399563;26;20222;-83
2024/04/12 06:43:14;;;;;;;10.90;9.80;;;;;;;;;;5379232;26;20281;-83
2024/04/12 06:46:18;;;;;;;14.20;10.50;;;;;;;;;;5420099;26;20222;-83
2024/04/12 06:49:26;;;;;;;12.17;10.87;;;;;;;;;;5379294;26;20252;-83
2024/04/12 06:52:34;;;;;;;15.33;12.07;;;;;;;;;;5378833;26;20273;-84
2024/04/12 06:55:46;;;;;;;16.63;11.37;;;;;;;;;;5399123;26;20225;-83
2024/04/12 06:58:50;;;;;;;13.87;11.23;;;;;;;;;;5398722;26;20230;-85
2024/04/12 07:01:54;;;;;;;15.37;12.27;;;;;;;;;;5378061;26;20276;-84
2024/04/12 07:04:59;;;;;;;16.33;11.77;;;;;;;;;;5398253;26;20273;-84
2024/04/12 07:08:05;;;;;;;17.33;12.57;;;;;;;;;;5377905;26;20221;-84
2024/04/12 07:11:10;;;;;;;18.10;12.17;;;;;;;;;;5398023;26;20273;-84
2024/04/12 07:14:15;;;;;;;15.83;11.90;;;;;;;;;;5397805;26;20225;-84
2024/04/12 07:17:20;;;;;;;14.50;11.23;;;;;;;;;;5398233;26;20285;-84
2024/04/12 07:20:27;;;;;;;13.00;10.77;;;;;;;;;;5418250;26;20281;-84
2024/04/12 07:23:31;;;;;;;18.17;11.67;;;;;;;;;;5376783;26;20562;-84
2024/04/12 07:26:37;;;;;;;16.47;13.40;;;;;;;;;;5396786;26;20585;-85
2024/04/12 07:29:44;;;;;;;14.93;10.90;;;;;;;;;;5397446;26;20225;-83
2024/04/12 07:32:50;;;;;;;14.40;10.60;;;;;;;;;;5397062;26;20277;-84
2024/04/12 07:35:59;;;;;;;12.50;10.23;;;;;;;;;;5404710;26;20225;-85
2024/04/12 07:39:05;;;;;;;18.77;10.73;;;;;;;;;;5405760;26;20215;-85
2024/04/12 07:42:09;;;;;;;14.77;10.10;;;;;;;;;;5406974;26;20285;-85
2024/04/12 07:45:23;;;;;;;16.70;10.93;;;;;;;;;;5388318;26;20211;-86
2024/04/12 07:48:28;;;;;;;12.97;10.33;;;;;;;;;;5381097;26;20254;-84
2024/04/12 07:51:32;;;;;;;12.23;9.63;;;;;;;;;;5401088;26;20273;-84
2024/04/12 07:54:36;;;;;;;12.87;9.70;;;;;;;;;;5381048;26;20217;-85
2024/04/12 07:57:50;;;;;;;10.20;8.97;;;;;;;;;;5400907;26;20770;-85
2024/04/12 08:04:38;;;;;;;10.50;8.50;;;;;;;;;;5318318;26;20316;-86
2024/04/12 08:07:42;;;;;;;15.80;11.50;;;;;;;;;;5400854;26;20213;-86
2024/04/12 08:10:56;;;;;;;12.70;9.40;;;;;;;;;;5422188;26;20636;-86
2024/04/12 08:14:08;;;;;;;10.57;8.27;;;;;;;;;;5400817;26;20226;-86
2024/04/12 08:17:14;;;;;;;12.57;8.87;;;;;;;;;;5383621;26;20218;-86
2024/04/12 08:20:25;;;;;;;10.23;9.23;;;;;;;;;;5380389;26;20214;-85
2024/04/12 08:23:29;;;;;;;9.73;8.67;;;;;;;;;;5400217;26;20219;-86
2024/04/12 08:26:33;;;;;;;17.20;9.00;;;;;;;;;;5402175;26;20736;-85
2024/04/12 08:29:39;;;;;;;11.30;8.40;;;;;;;;;;5407894;26;20218;-86
2024/04/12 08:32:48;;;;;;;11.43;7.67;;;;;;;;;;5387195;26;20261;-86
2024/04/12 08:35:55;;;;;;;11.83;7.90;;;;;;;;;;5428684;26;20197;-87
2024/04/12 08:39:12;;;;;;;10.90;7.17;;;;;;;;;;5387789;26;20692;-86
2024/04/12 08:42:18;;;;;;;12.30;7.87;;;;;;;;;;5406833;26;20268;-86
2024/04/12 08:45:30;;;;;;;14.50;11.60;;;;;;;;;;5408023;26;20197;-86
2024/04/12 08:48:41;;;;;;;11.40;10.20;;;;;;;;;;5409610;26;20244;-86
2024/04/12 08:51:53;;;;;;;9.37;7.33;;;;;;;;;;5427999;26;20268;-85
2024/04/12 08:54:59;;;;;;;9.83;6.23;;;;;;;;;;5427666;26;20214;-86
2024/04/12 08:58:06;;;;;;;7.50;5.77;;;;;;;;;;5427808;26;20265;-87
2024/04/12 09:01:11;;;;;;;11.13;6.60;;;;;;;;;;5386280;26;20269;-86
2024/04/12 09:04:20;;;;;;;8.13;6.80;;;;;;;;;;5427483;26;20268;-86
2024/04/12 09:07:26;;;;;;;10.27;7.20;;;;;;;;;;5405963;26;20215;-86
2024/04/12 09:10:35;;;;;;;8.77;6.80;;;;;;;;;;5405863;26;20201;-86
2024/04/12 09:13:42;;;;;;;10.23;6.07;;;;;;;;;;5406771;26;20215;-87
2024/04/12 09:16:48;;;;;;;7.93;5.83;;;;;;;;;;5385607;26;20563;-86
2024/04/12 09:19:53;;;;;;;11.70;5.77;;;;;;;;;;5385795;26;20196;-86
2024/04/12 09:23:13;;;;;;;12.90;6.17;;;;;;;;;;5405144;26;20219;-86
2024/04/12 09:26:39;;;;;;;9.23;6.33;;;;;;;;;;5426101;26;20710;-87
2024/04/12 09:29:54;;;;;;;9.60;6.30;;;;;;;;;;5405135;26;20223;-86
2024/04/12 09:33:16;;;;;;;7.72;6.05;;;;;;;;;;5385706;26;20282;-86
2024/04/12 09:36:44;;;;;;;8.15;6.22;;;;;;;;;;5404858;26;20219;-86
2024/04/12 09:43:25;;;;;;;8.18;4.78;;;;;;;;;;5404328;26;20231;-87
2024/04/12 10:37:22;;;;;;;5.93;4.57;;;;;;;;;;5403819;26;20217;-86
2024/04/12 10:38:09;;;;;;;9.45;5.95;;;;;;;;;;5400296;26;20223;-85
2024/04/12 10:41:16;;;;;;;8.98;6.05;;;;;;;;;;5380877;26;20287;-86
2024/04/12 10:44:24;;;;;;;7.03;5.32;;;;;;;;;;5380384;26;20277;-86
2024/04/12 10:47:28;;;;;;;6.30;5.03;;;;;;;;;;5400329;26;20222;-86
2024/04/12 10:50:36;;;;;;;6.97;5.05;;;;;;;;;;5380043;26;20229;-86
2024/04/12 10:53:40;;;;;;;8.20;5.10;;;;;;;;;;5422064;26;20221;-85
2024/04/12 10:56:45;;;;;;;6.47;4.60;;;;;;;;;;5379813;26;20277;-85
2024/04/12 10:59:53;;;;;;;7.25;4.38;;;;;;;;;;5400035;26;20221;-85
2024/04/12 11:03:00;;;;;;;7.72;5.28;;;;;;;;;;5399944;26;20277;-85
2024/04/12 11:06:17;;;;;;;7.18;5.18;;;;;;;;;;5419641;26;20243;-85
2024/04/12 11:09:30;;;;;;;6.72;4.82;;;;;;;;;;5400090;26;20222;-85
2024/04/12 11:12:40;;;;;;;6.85;5.35;;;;;;;;;;5418922;26;20291;-85
2024/04/12 11:32:42;;;;;;;8.43;5.30;;;;;;;;;;5398333;26;20796;-86
2024/04/12 11:35:49;;;;;;;9.95;5.45;;;;;;;;;;5397912;26;20282;-86
2024/04/12 11:38:53;;;;;;;7.35;5.10;;;;;;;;;;5418856;26;20219;-85
2024/04/12 11:42:00;;;;;;;6.47;5.35;;;;;;;;;;5397929;26;20283;-86
2024/04/12 11:45:05;;;;;;;11.05;5.15;;;;;;;;;;5418395;26;20224;-86
2024/04/12 11:48:14;;;;;;;6.95;5.30;;;;;;;;;;5397776;26;20646;-85
2024/04/12 11:51:19;;;;;;;11.23;5.28;;;;;;;;;;5377649;26;20288;-85
2024/04/12 11:54:29;;;;;;;10.85;5.80;;;;;;;;;;5397913;26;20219;-85
2024/04/12 11:57:37;;;;;;;7.30;4.82;;;;;;;;;;5377463;26;20277;-85
2024/04/12 12:00:41;;;;;;;7.47;5.65;;;;;;;;;;5397718;26;20284;-86
2024/04/12 12:03:45;;;;;;;5.57;5.00;;;;;;;;;;5377357;26;20223;-85
2024/04/12 12:06:51;;;;;;;10.20;5.05;;;;;;;;;;5377973;26;20221;-84
2024/04/12 12:09:56;;;;;;;6.55;5.35;;;;;;;;;;5398471;26;20273;-84
2024/04/12 12:13:01;;;;;;;8.43;4.88;;;;;;;;;;5398798;26;20282;-84
2024/04/12 12:16:06;;;;;;;10.43;5.35;;;;;;;;;;5398615;26;20715;-85
2024/04/12 12:19:10;;;;;;;6.90;5.57;;;;;;;;;;5417773;26;20252;-85
2024/04/12 12:22:14;;;;;;;5.63;4.95;;;;;;;;;;5377011;26;20272;-85
2024/04/12 12:25:18;;;;;;;7.72;4.95;;;;;;;;;;5422450;26;20222;-85
2024/04/12 12:28:23;;;;;;;9.15;4.68;;;;;;;;;;5400147;26;20625;-85
2024/04/12 12:31:28;;;;;;;8.75;4.53;;;;;;;;;;5382060;26;20781;-84
2024/04/12 12:34:36;;;;;;;9.35;4.53;;;;;;;;;;5383394;26;20561;-85
2024/04/12 12:37:40;;;;;;;6.57;4.55;;;;;;;;;;5401694;26;20274;-84
2024/04/12 12:40:45;;;;;;;9.50;4.30;;;;;;;;;;5422448;26;20294;-85
2024/04/12 12:43:49;;;;;;;7.65;4.93;;;;;;;;;;5381495;26;20225;-85
2024/04/12 12:46:54;;;;;;;6.57;4.93;;;;;;;;;;5382282;26;20715;-85
2024/04/12 12:50:01;;;;;;;10.57;4.97;;;;;;;;;;5403348;26;20229;-85
2024/04/12 12:53:09;;;;;;;9.00;5.10;;;;;;;;;;5402497;26;20213;-84
2024/04/12 12:56:13;;;;;;;6.68;4.43;;;;;;;;;;5383277;26;20218;-85
2024/04/12 12:59:18;;;;;;;7.03;4.85;;;;;;;;;;5402176;26;20566;-85
2024/04/12 13:02:24;;;;;;;11.25;4.93;;;;;;;;;;5383594;26;20275;-85
2024/04/12 13:05:30;;;;;;;6.95;5.13;;;;;;;;;;5403246;26;20633;-85
2024/04/12 13:08:40;;;;;;;8.88;5.65;;;;;;;;;;5424887;26;20273;-85
2024/04/12 13:11:45;;;;;;;7.88;5.38;;;;;;;;;;5382660;26;20632;-84
2024/04/12 13:14:50;;;;;;;6.40;4.72;;;;;;;;;;5403048;26;20230;-85
2024/04/12 13:17:54;;;;;;;9.10;6.13;;;;;;;;;;5402570;26;20277;-85
2024/04/12 13:20:58;;;;;;;8.15;5.60;;;;;;;;;;5382346;26;20280;-85
2024/04/12 13:24:03;;;;;;;12.02;5.05;;;;;;;;;;5401370;26;20270;-84
2024/04/12 13:27:14;;;;;;;16.90;4.57;;;;;;;;;;5401034;26;20628;-85
2024/04/12 13:30:18;;;;;;;9.07;5.07;;;;;;;;;;5380995;26;20233;-85
2024/04/12 13:33:22;;;;;;;11.77;7.72;;;;;;;;;;5421256;26;20272;-85
2024/04/12 13:36:29;;;;;;;9.80;5.00;;;;;;;;;;5399293;26;20222;-85
2024/04/12 13:39:38;;;;;;;9.77;5.40;;;;;;;;;;5400228;26;20229;-84
2024/04/12 13:42:42;;;;;;;8.32;5.75;;;;;;;;;;5420450;26;20263;-82
2024/04/12 13:52:36;;;;;;;7.28;5.10;;;;;;;;;;5400668;26;20277;-82
2024/04/12 13:55:43;;;;;;;6.68;4.65;;;;;;;;;;5400196;26;20233;-81
2024/04/12 13:58:58;;;;;;;7.75;4.50;;;;;;;;;;5421881;26;20277;-82
2024/04/12 14:02:04;;;;;;;7.25;4.90;;;;;;;;;;5379539;26;20622;-82
2024/04/12 14:05:17;;;;;;;9.45;5.13;;;;;;;;;;5399772;26;20303;-81
2024/04/12 14:08:23;;;;;;;8.63;5.57;;;;;;;;;;5379836;26;20224;-82
2024/04/12 14:11:28;;;;;;;6.88;5.50;;;;;;;;;;5399204;26;20286;-82
2024/04/12 14:14:32;;;;;;;9.70;4.88;;;;;;;;;;5400310;26;20271;-82
2024/04/12 14:17:38;;;;;;;9.73;5.38;;;;;;;;;;5420896;26;20232;-81
2024/04/12 14:20:43;;;;;;;6.90;5.35;;;;;;;;;;5399210;26;20628;-81
2024/04/12 14:23:47;;;;;;;8.60;5.93;;;;;;;;;;5399053;26;20219;-82
2024/04/12 14:26:51;;;;;;;8.75;6.20;;;;;;;;;;5400254;26;20270;-81
2024/04/12 14:29:56;;;;;;;9.05;5.20;;;;;;;;;;5400665;26;20236;-81
2024/04/12 14:33:00;;;;;;;9.70;4.03;;;;;;;;;;5400187;26;20349;-82
2024/04/12 14:36:06;;;;;;;10.50;5.18;;;;;;;;;;5399777;26;20273;-83
2024/04/12 14:39:15;;;;;;;6.35;5.55;;;;;;;;;;5400023;26;20215;-82
2024/04/12 14:42:20;;;;;;;8.02;4.95;;;;;;;;;;5420513;26;20290;-82
2024/04/12 14:45:24;;;;;;;9.65;5.72;;;;;;;;;;5399354;26;20224;-83
2024/04/12 14:48:28;;;;;;;8.48;4.75;;;;;;;;;;5398344;26;20272;-83
2024/04/12 14:51:33;;;;;;;19.23;10.45;;;;;;;;;;5399837;26;20274;-82
2024/04/12 14:54:43;;;;;;;9.63;6.32;;;;;;;;;;5420940;26;20230;-82
2024/04/12 14:57:50;;;;;;;7.50;5.28;;;;;;;;;;5379187;26;20272;-82
2024/04/12 15:00:55;;;;;;;22.17;17.02;;;;;;;;;;5396934;26;20291;-82
2024/04/12 15:48:40;;;;;;;7.00;5.00;;;;;;;;;;5436365;26;20346;-84
2024/04/12 15:51:43;;;;;;;6.23;5.10;;;;;;;;;;5437534;26;20218;-83
2024/04/12 15:54:51;;;;;;;5.47;3.50;;;;;;;;;;5437399;26;20663;-83
2024/04/12 16:11:27;;;;;;;8.30;5.30;;;;;;;;;;5415364;26;20726;-82
2024/04/12 16:14:32;;;;;;;7.27;4.17;;;;;;;;;;5435651;26;20229;-82
2024/04/12 16:17:36;;;;;;;13.20;4.53;;;;;;;;;;5435841;26;20281;-82
2024/04/12 16:20:41;;;;;;;7.40;4.20;;;;;;;;;;5432429;26;20798;-82
2024/04/12 16:23:45;;;;;;;9.67;4.50;;;;;;;;;;5420821;26;20622;-84
2024/04/12 16:26:49;;;;;;;7.10;3.90;;;;;;;;;;5420368;26;20285;-82
2024/04/12 16:29:53;;;;;;;6.53;3.77;;;;;;;;;;5421506;26;20210;-82
2024/04/12 16:32:57;;;;;;;9.80;3.70;;;;;;;;;;5421419;26;20269;-82
2024/04/12 16:36:01;;;;;;;6.80;3.20;;;;;;;;;;5421225;26;20719;-82
2024/04/12 16:39:05;;;;;;;12.97;3.47;;;;;;;;;;5419951;26;20226;-82
2024/04/12 16:42:09;;;;;;;8.07;3.53;;;;;;;;;;5420186;26;20226;-83
2024/04/12 16:45:14;;;;;;;8.93;3.10;;;;;;;;;;5421745;26;20302;-83
2024/04/12 16:48:18;;;;;;;6.93;3.03;;;;;;;;;;5420348;26;20645;-83
2024/04/12 16:51:23;;;;;;;6.40;2.80;;;;;;;;;;5422757;26;20731;-82
2024/04/12 16:54:27;;;;;;;6.40;2.87;;;;;;;;;;5420190;26;20591;-82
2024/04/12 16:57:31;;;;;;;6.80;3.07;;;;;;;;;;5399079;26;20766;-82
2024/04/12 17:00:36;;;;;;;7.20;3.50;;;;;;;;;;5421597;26;20218;-83
2024/04/12 17:03:40;;;;;;;7.30;3.40;;;;;;;;;;5421507;26;20273;-82
2024/04/12 17:06:44;;;;;;;8.50;3.27;;;;;;;;;;5421743;26;20756;-83
2024/04/12 17:09:48;;;;;;;5.97;3.10;;;;;;;;;;5421337;26;20289;-82
2024/04/12 17:12:52;;;;;;;3.27;2.80;;;;;;;;;;5421658;26;20269;-82
2024/04/12 17:15:57;;;;;;;8.67;3.03;;;;;;;;;;5421568;26;20230;-83
2024/04/12 17:19:03;;;;;;;14.03;3.63;;;;;;;;;;5421745;26;20273;-82
2024/04/12 17:22:07;;;;;;;8.73;2.93;;;;;;;;;;5420157;26;20222;-82
2024/04/12 17:25:12;;;;;;;5.83;2.77;;;;;;;;;;5422292;26;20219;-82
2024/04/12 17:28:17;;;;;;;5.80;2.80;;;;;;;;;;5420360;26;20286;-82
2024/04/12 17:31:22;;;;;;;8.77;2.83;;;;;;;;;;5399056;26;20218;-83
2024/04/12 17:34:27;;;;;;;6.37;2.67;;;;;;;;;;5398554;26;20774;-83
2024/04/12 17:37:33;;;;;;;7.17;2.63;;;;;;;;;;5420667;26;20623;-83
2024/04/12 17:40:37;;;;;;;6.87;2.90;;;;;;;;;;5420517;26;20556;-83
2024/04/12 17:43:41;;;;;;;7.77;3.17;;;;;;;;;;5421454;26;20277;-83
2024/04/12 17:46:45;;;;;;;10.93;3.37;;;;;;;;;;5421876;26;20625;-83
2024/04/12 17:49:56;;;;;;;6.73;3.13;;;;;;;;;;5421019;26;20754;-83
2024/04/12 17:53:01;;;;;;;5.87;3.70;;;;;;;;;;5421769;26;20215;-83
2024/04/12 17:56:06;;;;;;;7.37;3.37;;;;;;;;;;5421509;26;20769;-83
2024/04/12 17:59:10;;;;;;;7.70;3.53;;;;;;;;;;5421355;26;20214;-83
2024/04/12 18:02:16;;;;;;;8.27;3.47;;;;;;;;;;5421249;26;20583;-83
2024/04/12 18:05:20;;;;;;;6.53;3.00;;;;;;;;;;5420207;26;20229;-83
2024/04/12 18:08:24;;;;;;;4.30;2.67;;;;;;;;;;5420767;26;20285;-83
2024/04/12 18:11:28;;;;;;;6.50;3.23;;;;;;;;;;5420596;26;20222;-82
2024/04/12 18:14:32;;;;;;;4.27;3.07;;;;;;;;;;5420418;26;20226;-82
2024/04/12 18:17:37;;;;;;;7.63;3.00;;;;;;;;;;5420992;26;20614;-83
2024/04/12 18:20:42;;;;;;;6.00;3.27;;;;;;;;;;5420072;26;20226;-83
2024/04/12 18:23:46;;;;;;;6.30;3.17;;;;;;;;;;5420710;26;20225;-82
2024/04/12 18:26:50;;;;;;;3.10;2.57;;;;;;;;;;5419778;26;20285;-83
2024/04/12 18:29:56;;;;;;;5.07;2.50;;;;;;;;;;5419997;26;20223;-82
2024/04/12 18:33:01;;;;;;;8.03;2.40;;;;;;;;;;5420845;26;20277;-82
2024/04/12 18:36:20;;;;;;;7.20;2.80;;;;;;;;;;5421809;26;20269;-83
2024/04/12 18:46:41;;;;;;;9.13;3.23;;;;;;;;;;5419911;26;20266;-82
2024/04/12 18:49:45;;;;;;;3.50;2.43;;;;;;;;;;5418811;26;20222;-83
2024/04/12 18:52:50;;;;;;;8.63;2.97;;;;;;;;;;5418184;26;20230;-83
2024/04/12 18:55:54;;;;;;;4.37;2.77;;;;;;;;;;5422379;26;20560;-83
2024/04/12 18:58:59;;;;;;;5.63;2.57;;;;;;;;;;5418795;26;20228;-83
2024/04/12 19:02:03;;;;;;;9.67;3.43;;;;;;;;;;5420604;26;20230;-82
2024/04/12 19:05:08;;;;;;;5.47;2.90;;;;;;;;;;5419681;26;20564;-83
2024/04/12 19:08:12;;;;;;;7.93;3.10;;;;;;;;;;5418726;26;20618;-82
2024/04/12 19:11:20;;;;;;;7.60;3.17;;;;;;;;;;5420983;26;20226;-82
2024/04/12 19:14:24;;;;;;;5.73;2.80;;;;;;;;;;5421528;26;20223;-82
2024/04/12 19:17:29;;;;;;;9.03;3.60;;;;;;;;;;5422233;26;20281;-82
2024/04/12 19:20:39;;;;;;;5.97;3.57;;;;;;;;;;5420612;26;20230;-82
2024/04/12 19:23:48;;;;;;;9.47;3.87;;;;;;;;;;5420812;26;20211;-85
2024/04/12 19:26:53;;;;;;;5.47;3.47;;;;;;;;;;5420618;26;20289;-82
2024/04/12 19:29:58;;;;;;;5.07;3.30;;;;;;;;;;5424421;26;20275;-82
2024/04/12 19:33:12;;;;;;;8.67;3.37;;;;;;;;;;5423692;26;20281;-82
2024/04/12 19:36:17;;;;;;;5.53;3.30;;;;;;;;;;5423150;26;20780;-82
2024/04/12 19:39:21;;;;;;;6.20;3.80;;;;;;;;;;5422973;26;20277;-83
2024/04/12 19:42:30;;;;;;;7.47;3.17;;;;;;;;;;5423961;26;20230;-83
2024/04/12 19:45:34;;;;;;;7.07;3.77;;;;;;;;;;5423977;26;20265;-83
2024/04/12 19:48:41;;;;;;;4.83;3.30;;;;;;;;;;5426925;26;20260;-83
2024/04/12 19:51:48;;;;;;;6.53;3.37;;;;;;;;;;5426227;26;20226;-82
2024/04/12 19:54:53;;;;;;;5.53;3.40;;;;;;;;;;5428103;26;20197;-83
2024/04/12 19:57:58;;;;;;;4.53;2.90;;;;;;;;;;5428384;26;20280;-84
2024/04/12 20:01:04;;;;;;;5.10;3.20;;;;;;;;;;5425339;26;20413;-83
2024/04/12 20:04:10;;;;;;;7.43;3.50;;;;;;;;;;5429210;26;20244;-83
2024/04/12 20:07:15;;;;;;;6.63;3.20;;;;;;;;;;5426928;26;20274;-84
2024/04/12 20:10:20;;;;;;;10.03;4.20;;;;;;;;;;5405473;26;20274;-82
2024/04/12 20:13:25;;;;;;;5.33;4.43;;;;;;;;;;5425721;26;20269;-82
2024/04/12 20:16:30;;;;;;;11.43;4.40;;;;;;;;;;5427507;26;20281;-83
2024/04/12 20:19:34;;;;;;;4.90;3.67;;;;;;;;;;5433055;26;20256;-83
2024/04/12 20:22:39;;;;;;;10.20;4.10;;;;;;;;;;5432125;26;20209;-83
2024/04/12 20:25:44;;;;;;;5.67;3.30;;;;;;;;;;5433587;26;20205;-82
2024/04/12 20:28:54;;;;;;;5.50;3.30;;;;;;;;;;5431400;26;20201;-83
2024/04/12 20:35:31;;;;;;;3.90;2.97;;;;;;;;;;5432751;26;20233;-82
2024/04/12 20:38:35;;;;;;;5.97;2.87;;;;;;;;;;5430387;26;20205;-83
2024/04/12 20:41:40;;;;;;;3.73;3.20;;;;;;;;;;5429685;26;20256;-83
2024/04/12 20:44:44;;;;;;;5.13;2.90;;;;;;;;;;5409830;26;20197;-82
2024/04/12 20:47:48;;;;;;;6.37;3.70;;;;;;;;;;5431404;26;20280;-83
2024/04/12 20:50:52;;;;;;;4.87;3.57;;;;;;;;;;5431103;26;20218;-83
2024/04/12 20:53:58;;;;;;;7.90;3.47;;;;;;;;;;5431038;26;20200;-83
2024/04/12 20:57:03;;;;;;;5.33;3.67;;;;;;;;;;5431143;26;20264;-83
2024/04/12 21:00:08;;;;;;;5.97;3.60;;;;;;;;;;5429595;26;20200;-82
2024/04/12 21:03:12;;;;;;;4.97;3.47;;;;;;;;;;5408855;26;20240;-83
2024/04/12 21:06:16;;;;;;;7.37;3.80;;;;;;;;;;5430268;26;20212;-83
2024/04/12 21:09:20;;;;;;;7.90;4.37;;;;;;;;;;5428482;26;20293;-83